sim
Sign-in with your pilot id or email,
or register
Callsign
Passwort

Schedule Details

Flight Number: OEO2003
Departure: Bremen Airport (EDDW) at 10:45
Arrival: Munich Airport (EDDM) at 12:10

Weather Information
Getting current METAR information for EDDW 250650Z 18007KT 150V210 9999 FEW018 12/10 Q0996 NOSIG
Getting current METAR information for EDDM 250650Z 20007KT 9999 RA FEW020 BKN040 12/11 Q1001 TEMPO 28015G25KT

Schedule Frequency

Route Map